Aviation Digital Data Service (ADDS)

Output produced by METARs form (1756 UTC 24 April 2014)
found at http://www.aviationweather.gov/adds/metars/
 
KILG 241751Z 30015G22KT 10SM CLR 15/M06 A3002 RMK AO2 PK WND 31026/1704 SLP165 T01501061 10156 20072 58016
KILG 241728Z 2418/2518 31016G26KT P6SM SKC 
     FM250000 34010KT P6SM SKC 
     FM250600 VRB05KT P6SM SCT250 
     FM251500 16008KT P6SM BKN200